sensor_id;sensor_type;location;lat;lon;timestamp;P1;P2;P0
72854;PMS7003;60991;51.278;22.550;2024-01-16T00:01:11;0.00;0.00;0.00
72854;PMS7003;60991;51.278;22.550;2024-01-16T00:02:42;0.50;0.50;0.25
72854;PMS7003;60991;51.278;22.550;2024-01-16T00:04:12;0.33;0.00;0.00
72854;PMS7003;60991;51.278;22.550;2024-01-16T00:05:42;1.00;0.00;0.00
72854;PMS7003;60991;51.278;22.550;2024-01-16T00:07:12;1.00;1.00;0.25
72854;PMS7003;60991;51.278;22.550;2024-01-16T00:08:43;6.33;1.00;1.00
72854;PMS7003;60991;51.278;22.550;2024-01-16T00:10:13;1.00;1.00;0.67
72854;PMS7003;60991;51.278;22.550;2024-01-16T00:11:43;0.00;0.00;0.00
72854;PMS7003;60991;51.278;22.550;2024-01-16T00:13:13;0.00;0.00;0.00
72854;PMS7003;60991;51.278;22.550;2024-01-16T00:14:44;3.00;0.00;0.00
72854;PMS7003;60991;51.278;22.550;2024-01-16T00:16:14;1.00;0.00;0.00
72854;PMS7003;60991;51.278;22.550;2024-01-16T00:17:44;0.00;0.00;0.00
72854;PMS7003;60991;51.278;22.550;2024-01-16T00:19:14;0.33;0.00;0.00
72854;PMS7003;60991;51.278;22.550;2024-01-16T00:20:44;1.00;1.00;1.00
72854;PMS7003;60991;51.278;22.550;2024-01-16T00:22:15;1.00;0.00;0.00
72854;PMS7003;60991;51.278;22.550;2024-01-16T00:23:45;0.00;0.00;0.00
72854;PMS7003;60991;51.278;22.550;2024-01-16T00:25:15;0.00;0.00;0.00
72854;PMS7003;60991;51.278;22.550;2024-01-16T00:26:45;0.00;0.00;0.00
72854;PMS7003;60991;51.278;22.550;2024-01-16T00:28:15;3.00;0.00;0.00
72854;PMS7003;60991;51.278;22.550;2024-01-16T00:29:46;0.00;0.00;0.00
72854;PMS7003;60991;51.278;22.550;2024-01-16T00:31:16;0.25;0.25;0.25
72854;PMS7003;60991;51.278;22.550;2024-01-16T00:32:46;0.00;0.00;0.00
72854;PMS7003;60991;51.278;22.550;2024-01-16T00:34:16;0.00;0.00;0.00
72854;PMS7003;60991;51.278;22.550;2024-01-16T00:35:47;0.00;0.00;0.00
72854;PMS7003;60991;51.278;22.550;2024-01-16T00:37:17;0.00;0.00;0.00
72854;PMS7003;60991;51.278;22.550;2024-01-16T00:38:47;0.33;0.33;0.00
72854;PMS7003;60991;51.278;22.550;2024-01-16T00:40:17;0.33;0.00;0.00
72854;PMS7003;60991;51.278;22.550;2024-01-16T00:41:48;0.00;0.00;0.00
72854;PMS7003;60991;51.278;22.550;2024-01-16T00:43:18;0.00;0.00;0.00
72854;PMS7003;60991;51.278;22.550;2024-01-16T00:44:48;0.33;0.33;0.33
72854;PMS7003;60991;51.278;22.550;2024-01-16T00:46:18;0.00;0.00;0.00
72854;PMS7003;60991;51.278;22.550;2024-01-16T00:47:48;0.00;0.00;0.00
72854;PMS7003;60991;51.278;22.550;2024-01-16T00:49:19;0.00;0.00;0.00
72854;PMS7003;60991;51.278;22.550;2024-01-16T00:50:49;0.00;0.00;0.00
72854;PMS7003;60991;51.278;22.550;2024-01-16T00:52:19;3.00;0.00;0.00
72854;PMS7003;60991;51.278;22.550;2024-01-16T00:53:49;0.00;0.00;0.00
72854;PMS7003;60991;51.278;22.550;2024-01-16T00:55:19;0.33;0.00;0.00
72854;PMS7003;60991;51.278;22.550;2024-01-16T00:56:50;0.00;0.00;0.00
72854;PMS7003;60991;51.278;22.550;2024-01-16T00:58:23;3.00;0.00;0.00
72854;PMS7003;60991;51.278;22.550;2024-01-16T00:59:53;0.00;0.00;0.00
72854;PMS7003;60991;51.278;22.550;2024-01-16T01:01:23;0.00;0.00;0.00
72854;PMS7003;60991;51.278;22.550;2024-01-16T01:02:54;0.00;0.00;0.00
72854;PMS7003;60991;51.278;22.550;2024-01-16T01:04:24;1.00;0.00;0.00
72854;PMS7003;60991;51.278;22.550;2024-01-16T01:05:54;0.00;0.00;0.00
72854;PMS7003;60991;51.278;22.550;2024-01-16T01:07:25;0.75;0.00;0.00
72854;PMS7003;60991;51.278;22.550;2024-01-16T01:08:55;0.00;0.00;0.00
72854;PMS7003;60991;51.278;22.550;2024-01-16T01:10:25;2.33;0.00;0.00
72854;PMS7003;60991;51.278;22.550;2024-01-16T01:11:56;1.00;0.00;0.00
72854;PMS7003;60991;51.278;22.550;2024-01-16T01:13:26;0.00;0.00;0.00
72854;PMS7003;60991;51.278;22.550;2024-01-16T01:14:56;0.00;0.00;0.00
72854;PMS7003;60991;51.278;22.550;2024-01-16T01:16:26;0.33;0.00;0.00
72854;PMS7003;60991;51.278;22.550;2024-01-16T01:17:56;0.00;0.00;0.00
72854;PMS7003;60991;51.278;22.550;2024-01-16T01:19:27;0.00;0.00;0.00
72854;PMS7003;60991;51.278;22.550;2024-01-16T01:20:57;4.00;0.00;0.00
72854;PMS7003;60991;51.278;22.550;2024-01-16T01:22:27;4.67;0.00;0.00
72854;PMS7003;60991;51.278;22.550;2024-01-16T01:23:57;0.00;0.00;0.00
72854;PMS7003;60991;51.278;22.550;2024-01-16T01:25:27;0.00;0.00;0.00
72854;PMS7003;60991;51.278;22.550;2024-01-16T01:26:58;0.00;0.00;0.00
72854;PMS7003;60991;51.278;22.550;2024-01-16T01:28:28;1.67;1.00;0.00
72854;PMS7003;60991;51.278;22.550;2024-01-16T01:29:58;1.00;0.00;0.00
72854;PMS7003;60991;51.278;22.550;2024-01-16T01:31:28;0.00;0.00;0.00
72854;PMS7003;60991;51.278;22.550;2024-01-16T01:32:58;0.67;0.67;0.00
72854;PMS7003;60991;51.278;22.550;2024-01-16T01:34:28;0.00;0.00;0.00
72854;PMS7003;60991;51.278;22.550;2024-01-16T01:35:59;0.00;0.00;0.00
72854;PMS7003;60991;51.278;22.550;2024-01-16T01:37:29;1.33;0.00;0.00
72854;PMS7003;60991;51.278;22.550;2024-01-16T01:38:59;3.00;1.00;1.00
72854;PMS7003;60991;51.278;22.550;2024-01-16T01:40:29;2.33;0.00;0.00
72854;PMS7003;60991;51.278;22.550;2024-01-16T01:41:59;0.00;0.00;0.00
72854;PMS7003;60991;51.278;22.550;2024-01-16T01:43:30;1.00;0.00;0.00
72854;PMS7003;60991;51.278;22.550;2024-01-16T01:45:00;0.50;0.00;0.00
72854;PMS7003;60991;51.278;22.550;2024-01-16T01:46:31;0.00;0.00;0.00
72854;PMS7003;60991;51.278;22.550;2024-01-16T01:48:02;0.00;0.00;0.00
72854;PMS7003;60991;51.278;22.550;2024-01-16T01:49:33;3.00;0.00;0.00
72854;PMS7003;60991;51.278;22.550;2024-01-16T01:51:03;0.75;0.00;0.00
72854;PMS7003;60991;51.278;22.550;2024-01-16T01:52:34;0.75;0.75;0.25
72854;PMS7003;60991;51.278;22.550;2024-01-16T01:54:05;0.00;0.00;0.00
72854;PMS7003;60991;51.278;22.550;2024-01-16T01:55:35;0.00;0.00;0.00
72854;PMS7003;60991;51.278;22.550;2024-01-16T01:57:05;0.00;0.00;0.00
72854;PMS7003;60991;51.278;22.550;2024-01-16T01:58:38;1.00;0.00;0.00
72854;PMS7003;60991;51.278;22.550;2024-01-16T02:00:08;0.25;0.25;0.00
72854;PMS7003;60991;51.278;22.550;2024-01-16T02:01:40;2.50;0.00;0.00
72854;PMS7003;60991;51.278;22.550;2024-01-16T02:03:11;0.50;0.50;0.00
72854;PMS7003;60991;51.278;22.550;2024-01-16T02:04:43;0.00;0.00;0.00
72854;PMS7003;60991;51.278;22.550;2024-01-16T02:06:14;0.00;0.00;0.00
72854;PMS7003;60991;51.278;22.550;2024-01-16T02:07:44;0.00;0.00;0.00
72854;PMS7003;60991;51.278;22.550;2024-01-16T02:09:14;0.00;0.00;0.00
72854;PMS7003;60991;51.278;22.550;2024-01-16T02:10:45;4.00;0.00;0.00
72854;PMS7003;60991;51.278;22.550;2024-01-16T02:12:19;0.75;0.00;0.00
72854;PMS7003;60991;51.278;22.550;2024-01-16T02:13:49;3.33;0.00;0.00
72854;PMS7003;60991;51.278;22.550;2024-01-16T02:15:19;0.67;0.67;0.67
72854;PMS7003;60991;51.278;22.550;2024-01-16T02:16:49;0.00;0.00;0.00
72854;PMS7003;60991;51.278;22.550;2024-01-16T02:18:20;0.33;0.00;0.00
72854;PMS7003;60991;51.278;22.550;2024-01-16T02:19:50;1.00;1.00;0.00
72854;PMS7003;60991;51.278;22.550;2024-01-16T02:21:21;0.67;0.67;0.00
72854;PMS7003;60991;51.278;22.550;2024-01-16T02:22:52;0.00;0.00;0.00
72854;PMS7003;60991;51.278;22.550;2024-01-16T02:24:25;1.00;1.00;1.00
72854;PMS7003;60991;51.278;22.550;2024-01-16T02:25:56;0.75;0.75;0.75
72854;PMS7003;60991;51.278;22.550;2024-01-16T02:27:26;3.00;0.00;0.00
72854;PMS7003;60991;51.278;22.550;2024-01-16T02:28:56;0.33;0.00;0.00
72854;PMS7003;60991;51.278;22.550;2024-01-16T02:30:27;2.33;0.00;0.00
72854;PMS7003;60991;51.278;22.550;2024-01-16T02:31:57;0.00;0.00;0.00
72854;PMS7003;60991;51.278;22.550;2024-01-16T02:33:27;0.67;0.33;0.33
72854;PMS7003;60991;51.278;22.550;2024-01-16T02:34:57;3.33;0.00;0.00
72854;PMS7003;60991;51.278;22.550;2024-01-16T02:36:28;1.00;1.00;1.00
72854;PMS7003;60991;51.278;22.550;2024-01-16T02:37:58;0.25;0.25;0.25
72854;PMS7003;60991;51.278;22.550;2024-01-16T02:39:28;4.00;0.67;0.00
72854;PMS7003;60991;51.278;22.550;2024-01-16T02:40:58;0.00;0.00;0.00
72854;PMS7003;60991;51.278;22.550;2024-01-16T02:42:29;1.00;1.00;1.00
72854;PMS7003;60991;51.278;22.550;2024-01-16T02:43:59;1.00;1.00;1.00
72854;PMS7003;60991;51.278;22.550;2024-01-16T02:45:30;0.00;0.00;0.00
72854;PMS7003;60991;51.278;22.550;2024-01-16T02:47:00;0.00;0.00;0.00
72854;PMS7003;60991;51.278;22.550;2024-01-16T02:48:30;1.67;1.67;1.00
72854;PMS7003;60991;51.278;22.550;2024-01-16T02:50:00;0.00;0.00;0.00
72854;PMS7003;60991;51.278;22.550;2024-01-16T02:51:30;0.00;0.00;0.00
72854;PMS7003;60991;51.278;22.550;2024-01-16T02:53:01;2.33;2.33;1.00
72854;PMS7003;60991;51.278;22.550;2024-01-16T02:54:31;1.00;1.00;1.00
72854;PMS7003;60991;51.278;22.550;2024-01-16T02:56:01;1.00;1.00;0.33
72854;PMS7003;60991;51.278;22.550;2024-01-16T02:57:32;0.50;0.50;0.50
72854;PMS7003;60991;51.278;22.550;2024-01-16T02:59:02;2.00;1.00;1.00
72854;PMS7003;60991;51.278;22.550;2024-01-16T03:00:32;1.00;0.33;0.33
72854;PMS7003;60991;51.278;22.550;2024-01-16T03:02:02;4.00;0.00;0.00
72854;PMS7003;60991;51.278;22.550;2024-01-16T03:03:33;2.25;0.75;0.25
72854;PMS7003;60991;51.278;22.550;2024-01-16T03:05:03;1.00;1.00;0.00
72854;PMS7003;60991;51.278;22.550;2024-01-16T03:06:33;0.00;0.00;0.00
72854;PMS7003;60991;51.278;22.550;2024-01-16T03:08:04;0.00;0.00;0.00
72854;PMS7003;60991;51.278;22.550;2024-01-16T03:09:35;0.00;0.00;0.00
72854;PMS7003;60991;51.278;22.550;2024-01-16T03:11:05;0.00;0.00;0.00
72854;PMS7003;60991;51.278;22.550;2024-01-16T03:12:35;0.00;0.00;0.00
72854;PMS7003;60991;51.278;22.550;2024-01-16T03:14:05;0.00;0.00;0.00
72854;PMS7003;60991;51.278;22.550;2024-01-16T03:15:35;0.00;0.00;0.00
72854;PMS7003;60991;51.278;22.550;2024-01-16T03:17:06;0.00;0.00;0.00
72854;PMS7003;60991;51.278;22.550;2024-01-16T03:18:39;0.00;0.00;0.00
72854;PMS7003;60991;51.278;22.550;2024-01-16T03:20:09;0.00;0.00;0.00
72854;PMS7003;60991;51.278;22.550;2024-01-16T03:21:40;0.00;0.00;0.00
72854;PMS7003;60991;51.278;22.550;2024-01-16T03:23:10;0.00;0.00;0.00
72854;PMS7003;60991;51.278;22.550;2024-01-16T03:24:40;0.00;0.00;0.00
72854;PMS7003;60991;51.278;22.550;2024-01-16T03:26:13;0.00;0.00;0.00
72854;PMS7003;60991;51.278;22.550;2024-01-16T03:27:44;1.00;0.00;0.00
72854;PMS7003;60991;51.278;22.550;2024-01-16T03:29:14;0.00;0.00;0.00
72854;PMS7003;60991;51.278;22.550;2024-01-16T03:30:44;0.00;0.00;0.00
72854;PMS7003;60991;51.278;22.550;2024-01-16T03:32:14;0.00;0.00;0.00
72854;PMS7003;60991;51.278;22.550;2024-01-16T03:33:45;0.00;0.00;0.00
72854;PMS7003;60991;51.278;22.550;2024-01-16T03:35:15;1.00;0.00;0.00
72854;PMS7003;60991;51.278;22.550;2024-01-16T03:36:45;0.00;0.00;0.00
72854;PMS7003;60991;51.278;22.550;2024-01-16T03:38:15;0.00;0.00;0.00
72854;PMS7003;60991;51.278;22.550;2024-01-16T03:39:45;0.00;0.00;0.00
72854;PMS7003;60991;51.278;22.550;2024-01-16T03:41:16;1.00;0.00;0.00
72854;PMS7003;60991;51.278;22.550;2024-01-16T03:42:46;0.00;0.00;0.00
72854;PMS7003;60991;51.278;22.550;2024-01-16T03:44:16;0.00;0.00;0.00
72854;PMS7003;60991;51.278;22.550;2024-01-16T03:45:46;0.00;0.00;0.00
72854;PMS7003;60991;51.278;22.550;2024-01-16T03:47:17;0.00;0.00;0.00
72854;PMS7003;60991;51.278;22.550;2024-01-16T03:48:47;0.00;0.00;0.00
72854;PMS7003;60991;51.278;22.550;2024-01-16T03:50:17;0.00;0.00;0.00
72854;PMS7003;60991;51.278;22.550;2024-01-16T03:51:47;3.00;0.00;0.00
72854;PMS7003;60991;51.278;22.550;2024-01-16T03:53:17;0.00;0.00;0.00
72854;PMS7003;60991;51.278;22.550;2024-01-16T03:54:48;0.00;0.00;0.00
72854;PMS7003;60991;51.278;22.550;2024-01-16T03:56:18;0.00;0.00;0.00
72854;PMS7003;60991;51.278;22.550;2024-01-16T03:57:48;0.00;0.00;0.00
72854;PMS7003;60991;51.278;22.550;2024-01-16T03:59:18;0.00;0.00;0.00
72854;PMS7003;60991;51.278;22.550;2024-01-16T04:00:48;0.00;0.00;0.00
72854;PMS7003;60991;51.278;22.550;2024-01-16T04:02:19;0.33;0.00;0.00
72854;PMS7003;60991;51.278;22.550;2024-01-16T04:03:49;0.00;0.00;0.00
72854;PMS7003;60991;51.278;22.550;2024-01-16T04:05:19;0.00;0.00;0.00
72854;PMS7003;60991;51.278;22.550;2024-01-16T04:06:49;0.00;0.00;0.00
72854;PMS7003;60991;51.278;22.550;2024-01-16T04:08:19;0.00;0.00;0.00
72854;PMS7003;60991;51.278;22.550;2024-01-16T04:09:50;0.33;0.33;0.00
72854;PMS7003;60991;51.278;22.550;2024-01-16T04:11:20;0.00;0.00;0.00
72854;PMS7003;60991;51.278;22.550;2024-01-16T04:12:50;0.00;0.00;0.00
72854;PMS7003;60991;51.278;22.550;2024-01-16T04:14:20;0.00;0.00;0.00
72854;PMS7003;60991;51.278;22.550;2024-01-16T04:15:50;0.00;0.00;0.00
72854;PMS7003;60991;51.278;22.550;2024-01-16T04:17:21;6.00;0.00;0.00
72854;PMS7003;60991;51.278;22.550;2024-01-16T04:18:51;0.00;0.00;0.00
72854;PMS7003;60991;51.278;22.550;2024-01-16T04:20:21;0.00;0.00;0.00
72854;PMS7003;60991;51.278;22.550;2024-01-16T04:21:51;0.00;0.00;0.00
72854;PMS7003;60991;51.278;22.550;2024-01-16T04:23:21;0.00;0.00;0.00
72854;PMS7003;60991;51.278;22.550;2024-01-16T04:24:52;0.00;0.00;0.00
72854;PMS7003;60991;51.278;22.550;2024-01-16T04:26:22;0.00;0.00;0.00
72854;PMS7003;60991;51.278;22.550;2024-01-16T04:27:52;1.67;0.00;0.00
72854;PMS7003;60991;51.278;22.550;2024-01-16T04:29:22;0.00;0.00;0.00
72854;PMS7003;60991;51.278;22.550;2024-01-16T04:30:52;0.00;0.00;0.00
72854;PMS7003;60991;51.278;22.550;2024-01-16T04:32:23;0.00;0.00;0.00
72854;PMS7003;60991;51.278;22.550;2024-01-16T04:33:53;1.00;0.00;0.00
72854;PMS7003;60991;51.278;22.550;2024-01-16T04:35:23;0.00;0.00;0.00
72854;PMS7003;60991;51.278;22.550;2024-01-16T04:36:54;1.00;0.00;0.00
72854;PMS7003;60991;51.278;22.550;2024-01-16T04:38:24;0.00;0.00;0.00
72854;PMS7003;60991;51.278;22.550;2024-01-16T04:39:54;0.67;0.00;0.00
72854;PMS7003;60991;51.278;22.550;2024-01-16T04:41:24;0.00;0.00;0.00
72854;PMS7003;60991;51.278;22.550;2024-01-16T04:42:54;0.00;0.00;0.00
72854;PMS7003;60991;51.278;22.550;2024-01-16T04:44:25;0.00;0.00;0.00
72854;PMS7003;60991;51.278;22.550;2024-01-16T04:45:55;0.00;0.00;0.00
72854;PMS7003;60991;51.278;22.550;2024-01-16T04:47:25;0.00;0.00;0.00
72854;PMS7003;60991;51.278;22.550;2024-01-16T04:48:56;0.00;0.00;0.00
72854;PMS7003;60991;51.278;22.550;2024-01-16T04:50:26;0.75;0.00;0.00
72854;PMS7003;60991;51.278;22.550;2024-01-16T04:51:56;0.00;0.00;0.00
72854;PMS7003;60991;51.278;22.550;2024-01-16T04:53:26;0.00;0.00;0.00
72854;PMS7003;60991;51.278;22.550;2024-01-16T04:54:56;0.00;0.00;0.00
72854;PMS7003;60991;51.278;22.550;2024-01-16T04:56:27;0.00;0.00;0.00
72854;PMS7003;60991;51.278;22.550;2024-01-16T04:57:57;0.00;0.00;0.00
72854;PMS7003;60991;51.278;22.550;2024-01-16T04:59:27;3.00;0.00;0.00
72854;PMS7003;60991;51.278;22.550;2024-01-16T05:00:57;0.00;0.00;0.00
72854;PMS7003;60991;51.278;22.550;2024-01-16T05:02:27;0.33;0.00;0.00
72854;PMS7003;60991;51.278;22.550;2024-01-16T05:03:58;0.00;0.00;0.00
72854;PMS7003;60991;51.278;22.550;2024-01-16T05:05:28;1.00;0.00;0.00
72854;PMS7003;60991;51.278;22.550;2024-01-16T05:06:58;2.00;0.00;0.00
72854;PMS7003;60991;51.278;22.550;2024-01-16T05:08:28;1.00;0.00;0.00
72854;PMS7003;60991;51.278;22.550;2024-01-16T05:09:59;0.00;0.00;0.00
72854;PMS7003;60991;51.278;22.550;2024-01-16T05:11:29;0.00;0.00;0.00
72854;PMS7003;60991;51.278;22.550;2024-01-16T05:12:59;0.33;0.00;0.00
72854;PMS7003;60991;51.278;22.550;2024-01-16T05:14:29;0.00;0.00;0.00
72854;PMS7003;60991;51.278;22.550;2024-01-16T05:16:00;0.00;0.00;0.00
72854;PMS7003;60991;51.278;22.550;2024-01-16T05:17:30;0.00;0.00;0.00
72854;PMS7003;60991;51.278;22.550;2024-01-16T05:19:00;0.00;0.00;0.00
72854;PMS7003;60991;51.278;22.550;2024-01-16T05:20:30;0.00;0.00;0.00
72854;PMS7003;60991;51.278;22.550;2024-01-16T05:22:01;1.00;0.00;0.00
72854;PMS7003;60991;51.278;22.550;2024-01-16T05:23:31;0.00;0.00;0.00
72854;PMS7003;60991;51.278;22.550;2024-01-16T05:25:01;1.67;0.00;0.00
72854;PMS7003;60991;51.278;22.550;2024-01-16T05:26:31;0.00;0.00;0.00
72854;PMS7003;60991;51.278;22.550;2024-01-16T05:28:01;3.00;0.00;0.00
72854;PMS7003;60991;51.278;22.550;2024-01-16T05:29:32;0.25;0.00;0.00
72854;PMS7003;60991;51.278;22.550;2024-01-16T05:31:02;0.00;0.00;0.00
72854;PMS7003;60991;51.278;22.550;2024-01-16T05:32:32;0.00;0.00;0.00
72854;PMS7003;60991;51.278;22.550;2024-01-16T05:34:02;0.00;0.00;0.00
72854;PMS7003;60991;51.278;22.550;2024-01-16T05:35:33;0.00;0.00;0.00
72854;PMS7003;60991;51.278;22.550;2024-01-16T05:37:03;0.00;0.00;0.00
72854;PMS7003;60991;51.278;22.550;2024-01-16T05:38:33;0.00;0.00;0.00
72854;PMS7003;60991;51.278;22.550;2024-01-16T05:40:03;0.00;0.00;0.00
72854;PMS7003;60991;51.278;22.550;2024-01-16T05:41:34;0.00;0.00;0.00
72854;PMS7003;60991;51.278;22.550;2024-01-16T05:43:05;0.00;0.00;0.00
72854;PMS7003;60991;51.278;22.550;2024-01-16T05:44:35;4.00;0.00;0.00
72854;PMS7003;60991;51.278;22.550;2024-01-16T05:46:05;0.33;0.33;0.00
72854;PMS7003;60991;51.278;22.550;2024-01-16T05:47:35;1.00;0.00;0.00
72854;PMS7003;60991;51.278;22.550;2024-01-16T05:49:06;1.67;1.00;0.00
72854;PMS7003;60991;51.278;22.550;2024-01-16T05:50:36;0.33;0.00;0.00
72854;PMS7003;60991;51.278;22.550;2024-01-16T05:52:06;1.50;0.00;0.00
72854;PMS7003;60991;51.278;22.550;2024-01-16T05:53:37;0.00;0.00;0.00
72854;PMS7003;60991;51.278;22.550;2024-01-16T05:55:07;1.00;1.00;0.00
72854;PMS7003;60991;51.278;22.550;2024-01-16T05:56:37;0.25;0.25;0.25
72854;PMS7003;60991;51.278;22.550;2024-01-16T05:58:08;0.00;0.00;0.00
72854;PMS7003;60991;51.278;22.550;2024-01-16T05:59:38;0.67;0.67;0.67
72854;PMS7003;60991;51.278;22.550;2024-01-16T06:01:08;0.00;0.00;0.00
72854;PMS7003;60991;51.278;22.550;2024-01-16T06:02:38;0.00;0.00;0.00
72854;PMS7003;60991;51.278;22.550;2024-01-16T06:04:08;0.00;0.00;0.00
72854;PMS7003;60991;51.278;22.550;2024-01-16T06:05:38;0.67;0.00;0.00
72854;PMS7003;60991;51.278;22.550;2024-01-16T06:07:09;6.00;0.00;0.00
72854;PMS7003;60991;51.278;22.550;2024-01-16T06:08:39;0.00;0.00;0.00
72854;PMS7003;60991;51.278;22.550;2024-01-16T06:10:11;2.33;0.00;0.00
72854;PMS7003;60991;51.278;22.550;2024-01-16T06:11:42;3.00;0.00;0.00
72854;PMS7003;60991;51.278;22.550;2024-01-16T06:13:12;0.00;0.00;0.00
72854;PMS7003;60991;51.278;22.550;2024-01-16T06:14:43;0.50;0.50;0.00
72854;PMS7003;60991;51.278;22.550;2024-01-16T06:16:13;1.67;0.00;0.00
72854;PMS7003;60991;51.278;22.550;2024-01-16T06:17:43;3.00;0.00;0.00
72854;PMS7003;60991;51.278;22.550;2024-01-16T06:19:13;0.00;0.00;0.00
72854;PMS7003;60991;51.278;22.550;2024-01-16T06:20:43;0.00;0.00;0.00
72854;PMS7003;60991;51.278;22.550;2024-01-16T06:22:14;0.00;0.00;0.00
72854;PMS7003;60991;51.278;22.550;2024-01-16T06:23:44;0.00;0.00;0.00
72854;PMS7003;60991;51.278;22.550;2024-01-16T06:25:14;4.00;0.00;0.00
72854;PMS7003;60991;51.278;22.550;2024-01-16T06:26:44;3.00;1.00;0.00
72854;PMS7003;60991;51.278;22.550;2024-01-16T06:28:14;3.00;0.00;0.00
72854;PMS7003;60991;51.278;22.550;2024-01-16T06:29:45;0.00;0.00;0.00
72854;PMS7003;60991;51.278;22.550;2024-01-16T06:31:16;2.00;1.00;1.00
72854;PMS7003;60991;51.278;22.550;2024-01-16T06:32:46;0.00;0.00;0.00
72854;PMS7003;60991;51.278;22.550;2024-01-16T06:34:16;0.67;0.67;0.33
72854;PMS7003;60991;51.278;22.550;2024-01-16T06:35:47;1.67;0.00;0.00
72854;PMS7003;60991;51.278;22.550;2024-01-16T06:37:17;0.67;0.67;0.33
72854;PMS7003;60991;51.278;22.550;2024-01-16T06:38:47;0.00;0.00;0.00
72854;PMS7003;60991;51.278;22.550;2024-01-16T06:40:17;0.00;0.00;0.00
72854;PMS7003;60991;51.278;22.550;2024-01-16T06:41:47;0.00;0.00;0.00
72854;PMS7003;60991;51.278;22.550;2024-01-16T06:43:18;1.00;0.00;0.00
72854;PMS7003;60991;51.278;22.550;2024-01-16T06:44:48;2.33;1.00;0.33
72854;PMS7003;60991;51.278;22.550;2024-01-16T06:46:18;1.00;1.00;1.00
72854;PMS7003;60991;51.278;22.550;2024-01-16T06:47:48;4.00;1.00;1.00
72854;PMS7003;60991;51.278;22.550;2024-01-16T06:49:18;1.00;1.00;0.00
72854;PMS7003;60991;51.278;22.550;2024-01-16T06:50:49;1.00;1.00;1.00
72854;PMS7003;60991;51.278;22.550;2024-01-16T06:52:19;1.00;1.00;1.00
72854;PMS7003;60991;51.278;22.550;2024-01-16T06:53:49;1.00;1.00;1.00
72854;PMS7003;60991;51.278;22.550;2024-01-16T06:55:19;2.33;2.33;2.33
72854;PMS7003;60991;51.278;22.550;2024-01-16T06:56:50;3.00;1.00;0.67
72854;PMS7003;60991;51.278;22.550;2024-01-16T06:58:20;0.67;0.00;0.00
72854;PMS7003;60991;51.278;22.550;2024-01-16T06:59:50;2.33;0.00;0.00
72854;PMS7003;60991;51.278;22.550;2024-01-16T07:01:20;1.67;1.00;1.00
72854;PMS7003;60991;51.278;22.550;2024-01-16T07:02:50;1.00;1.00;0.67
72854;PMS7003;60991;51.278;22.550;2024-01-16T07:04:21;4.00;1.50;1.00
72854;PMS7003;60991;51.278;22.550;2024-01-16T07:05:51;3.00;3.00;3.00
72854;PMS7003;60991;51.278;22.550;2024-01-16T07:07:21;9.75;5.00;3.00
72854;PMS7003;60991;51.278;22.550;2024-01-16T07:08:51;4.00;4.00;4.00
72854;PMS7003;60991;51.278;22.550;2024-01-16T07:10:22;6.33;4.00;3.00
72854;PMS7003;60991;51.278;22.550;2024-01-16T07:11:52;7.67;6.33;6.00
72854;PMS7003;60991;51.278;22.550;2024-01-16T07:13:22;5.25;5.25;3.25
72854;PMS7003;60991;51.278;22.550;2024-01-16T07:14:52;5.00;5.00;3.00
72854;PMS7003;60991;51.278;22.550;2024-01-16T07:16:23;3.33;1.67;1.67
72854;PMS7003;60991;51.278;22.550;2024-01-16T07:17:53;4.00;3.00;3.00
72854;PMS7003;60991;51.278;22.550;2024-01-16T07:19:23;1.75;0.00;0.00
72854;PMS7003;60991;51.278;22.550;2024-01-16T07:20:54;4.00;2.33;1.00
72854;PMS7003;60991;51.278;22.550;2024-01-16T07:22:24;0.00;0.00;0.00
72854;PMS7003;60991;51.278;22.550;2024-01-16T07:23:54;6.00;3.00;1.00
72854;PMS7003;60991;51.278;22.550;2024-01-16T07:25:25;3.75;0.00;0.00
72854;PMS7003;60991;51.278;22.550;2024-01-16T07:26:55;1.00;0.00;0.00
72854;PMS7003;60991;51.278;22.550;2024-01-16T07:28:25;2.33;2.33;2.33
72854;PMS7003;60991;51.278;22.550;2024-01-16T07:29:55;1.00;1.00;0.67
72854;PMS7003;60991;51.278;22.550;2024-01-16T07:31:25;0.67;0.00;0.00
72854;PMS7003;60991;51.278;22.550;2024-01-16T07:32:56;3.67;0.67;0.00
72854;PMS7003;60991;51.278;22.550;2024-01-16T07:34:26;1.00;1.00;1.00
72854;PMS7003;60991;51.278;22.550;2024-01-16T07:35:56;1.00;1.00;1.00
72854;PMS7003;60991;51.278;22.550;2024-01-16T07:37:26;3.00;1.00;1.00
72854;PMS7003;60991;51.278;22.550;2024-01-16T07:38:56;6.00;0.67;0.67
72854;PMS7003;60991;51.278;22.550;2024-01-16T07:40:27;4.00;1.00;1.00
72854;PMS7003;60991;51.278;22.550;2024-01-16T07:41:57;3.67;1.00;1.00
72854;PMS7003;60991;51.278;22.550;2024-01-16T07:43:27;4.00;1.00;1.00
72854;PMS7003;60991;51.278;22.550;2024-01-16T07:44:57;2.00;1.00;1.00
72854;PMS7003;60991;51.278;22.550;2024-01-16T07:46:28;0.33;0.33;0.33
72854;PMS7003;60991;51.278;22.550;2024-01-16T07:47:58;3.00;1.00;1.00
72854;PMS7003;60991;51.278;22.550;2024-01-16T07:49:28;1.00;1.00;1.00
72854;PMS7003;60991;51.278;22.550;2024-01-16T07:50:58;4.50;3.00;3.00
72854;PMS7003;60991;51.278;22.550;2024-01-16T07:52:28;1.00;1.00;0.67
72854;PMS7003;60991;51.278;22.550;2024-01-16T07:54:05;1.67;1.00;1.00
72854;PMS7003;60991;51.278;22.550;2024-01-16T07:55:36;3.75;3.00;1.00
72854;PMS7003;60991;51.278;22.550;2024-01-16T07:57:07;6.67;2.33;2.33
72854;PMS7003;60991;51.278;22.550;2024-01-16T07:58:37;5.33;1.67;1.00
72854;PMS7003;60991;51.278;22.550;2024-01-16T08:00:07;6.75;3.00;1.00
72854;PMS7003;60991;51.278;22.550;2024-01-16T08:01:37;5.00;3.00;1.50
72854;PMS7003;60991;51.278;22.550;2024-01-16T08:03:08;10.00;3.00;1.00
72854;PMS7003;60991;51.278;22.550;2024-01-16T08:04:39;1.00;1.00;1.00
72854;PMS7003;60991;51.278;22.550;2024-01-16T08:06:09;1.00;1.00;1.00
72854;PMS7003;60991;51.278;22.550;2024-01-16T08:07:39;2.33;1.67;1.00
72854;PMS7003;60991;51.278;22.550;2024-01-16T08:09:12;3.00;3.00;3.00
72854;PMS7003;60991;51.278;22.550;2024-01-16T08:10:42;3.25;3.00;3.00
72854;PMS7003;60991;51.278;22.550;2024-01-16T08:12:13;3.00;1.00;1.00
72854;PMS7003;60991;51.278;22.550;2024-01-16T08:13:43;6.33;3.00;3.00
72854;PMS7003;60991;51.278;22.550;2024-01-16T08:15:13;3.33;3.00;3.00
72854;PMS7003;60991;51.278;22.550;2024-01-16T08:16:43;2.00;1.00;1.00
72854;PMS7003;60991;51.278;22.550;2024-01-16T08:18:13;4.00;3.00;3.00
72854;PMS7003;60991;51.278;22.550;2024-01-16T08:19:44;0.33;0.33;0.33
72854;PMS7003;60991;51.278;22.550;2024-01-16T08:21:14;4.00;3.00;3.00
72854;PMS7003;60991;51.278;22.550;2024-01-16T08:22:44;1.00;1.00;1.00
72854;PMS7003;60991;51.278;22.550;2024-01-16T08:24:14;3.33;1.00;1.00
72854;PMS7003;60991;51.278;22.550;2024-01-16T08:25:44;1.00;1.00;1.00
72854;PMS7003;60991;51.278;22.550;2024-01-16T08:27:15;0.33;0.33;0.00
72854;PMS7003;60991;51.278;22.550;2024-01-16T08:28:45;0.00;0.00;0.00
72854;PMS7003;60991;51.278;22.550;2024-01-16T08:30:15;0.00;0.00;0.00
72854;PMS7003;60991;51.278;22.550;2024-01-16T08:31:45;0.00;0.00;0.00
72854;PMS7003;60991;51.278;22.550;2024-01-16T08:33:16;0.33;0.00;0.00
72854;PMS7003;60991;51.278;22.550;2024-01-16T08:34:46;0.75;0.75;0.75
72854;PMS7003;60991;51.278;22.550;2024-01-16T08:36:16;0.67;0.67;0.67
72854;PMS7003;60991;51.278;22.550;2024-01-16T08:37:47;6.33;3.00;3.00
72854;PMS7003;60991;51.278;22.550;2024-01-16T08:39:17;1.00;1.00;1.00
72854;PMS7003;60991;51.278;22.550;2024-01-16T08:40:48;4.33;4.33;1.67